GLN weather

Goulimime Airport
Goulimime, Tiznit Province, Morocco

Public forecast

Using degrees Celsius for public forecast. Weather courtesy of forecast.io.

Closest aviation weather report (METAR) to Goulimime Airport

Report is more than 6 hours old.

Closest report is Tan Tan Airport, 68.0 nm (126.0 km) WSW. Retrieved 2019/10/19 18:00 UTC (11 hours ago):

GMAT 191800Z 36016KT CAVOK 20/15 Q1013 NOSIG

Closest aviation forecast (TAF) to Goulimime Airport

Forecast is more than 12 hours old.

Closest forecast is Sidi Ifni Xx Airport, 21.6 nm (40.1 km) NNW. Retrieved 2017/11/16 18:00 UTC (2 years ago):

TAF GMMF 161700Z 1618/1724 02008KT CAVOK BECMG 1620/1624 10004KT 8000 NSC PROB30 TEMPO 1702/1707 3000 BR BKN010